O'neill, Nebraska
Current Conditions -  °F | °C
As of 8:55 PM on Monday 22 Dec 2014 (Local Time) from KONL Reporting Station
Light Snow Light Snow  
Wind Chill: 21°   Ceiling: 1800
Heat Index: 33°   Visibility: 7mi
Dew Point: 32°   Wind: 18mph
Humidity: 97%   Direction: 320°NW
Pressure: 29.5"   Gusts: 30mph
Location:  42.47°N, 98.68°W
Report Text: KONL 230255Z AUTO 32016G26KT 7SM -SN SCT010 OVC018 00/00 A2950 RMK AO2 T00031001
Loading
Personal Weather Stations






























Interactive Weather Map New forecast layout! Learn more

10-Day Weather Forecast

Advertisements
Track Severe Weather on mobile